sensor_id;sensor_type;location;lat;lon;timestamp;P1;durP1;ratioP1;P2;durP2;ratioP2
84766;SDS011;74995;49.824;10.994;2024-01-30T00:01:06;7.15;;;4.00;;
84766;SDS011;74995;49.824;10.994;2024-01-30T00:03:31;6.28;;;4.03;;
84766;SDS011;74995;49.824;10.994;2024-01-30T00:05:56;5.40;;;3.67;;
84766;SDS011;74995;49.824;10.994;2024-01-30T00:08:22;7.18;;;3.92;;
84766;SDS011;74995;49.824;10.994;2024-01-30T00:10:47;6.07;;;3.88;;
84766;SDS011;74995;49.824;10.994;2024-01-30T00:13:12;6.60;;;3.88;;
84766;SDS011;74995;49.824;10.994;2024-01-30T00:18:04;7.10;;;4.30;;
84766;SDS011;74995;49.824;10.994;2024-01-30T00:20:29;5.28;;;3.72;;
84766;SDS011;74995;49.824;10.994;2024-01-30T00:22:55;5.95;;;3.97;;
84766;SDS011;74995;49.824;10.994;2024-01-30T00:25:20;6.40;;;3.75;;
84766;SDS011;74995;49.824;10.994;2024-01-30T00:27:45;5.05;;;3.20;;
84766;SDS011;74995;49.824;10.994;2024-01-30T00:30:11;6.50;;;4.00;;
84766;SDS011;74995;49.824;10.994;2024-01-30T00:32:37;4.88;;;3.53;;
84766;SDS011;74995;49.824;10.994;2024-01-30T00:35:02;5.30;;;3.80;;
84766;SDS011;74995;49.824;10.994;2024-01-30T00:37:27;6.32;;;3.75;;
84766;SDS011;74995;49.824;10.994;2024-01-30T00:39:53;5.80;;;3.88;;
84766;SDS011;74995;49.824;10.994;2024-01-30T00:42:18;5.38;;;3.67;;
84766;SDS011;74995;49.824;10.994;2024-01-30T00:44:44;6.60;;;3.70;;
84766;SDS011;74995;49.824;10.994;2024-01-30T00:47:09;6.60;;;3.78;;
84766;SDS011;74995;49.824;10.994;2024-01-30T00:49:35;5.82;;;3.95;;
84766;SDS011;74995;49.824;10.994;2024-01-30T00:54:26;4.63;;;3.27;;
84766;SDS011;74995;49.824;10.994;2024-01-30T00:56:51;5.40;;;3.75;;
84766;SDS011;74995;49.824;10.994;2024-01-30T00:59:17;5.53;;;3.30;;
84766;SDS011;74995;49.824;10.994;2024-01-30T01:01:42;5.68;;;3.63;;
84766;SDS011;74995;49.824;10.994;2024-01-30T01:04:07;5.80;;;3.75;;
84766;SDS011;74995;49.824;10.994;2024-01-30T01:06:33;5.10;;;3.33;;
84766;SDS011;74995;49.824;10.994;2024-01-30T01:08:58;7.30;;;4.35;;
84766;SDS011;74995;49.824;10.994;2024-01-30T01:11:23;4.68;;;3.38;;
84766;SDS011;74995;49.824;10.994;2024-01-30T01:13:48;6.38;;;3.53;;
84766;SDS011;74995;49.824;10.994;2024-01-30T01:16:14;6.43;;;3.63;;
84766;SDS011;74995;49.824;10.994;2024-01-30T01:18:39;7.35;;;4.13;;
84766;SDS011;74995;49.824;10.994;2024-01-30T01:21:04;6.40;;;3.80;;
84766;SDS011;74995;49.824;10.994;2024-01-30T01:23:30;6.00;;;3.80;;
84766;SDS011;74995;49.824;10.994;2024-01-30T01:25:55;5.63;;;3.70;;
84766;SDS011;74995;49.824;10.994;2024-01-30T01:28:20;6.07;;;3.90;;
84766;SDS011;74995;49.824;10.994;2024-01-30T01:30:46;6.60;;;3.88;;
84766;SDS011;74995;49.824;10.994;2024-01-30T01:33:11;5.65;;;3.75;;
84766;SDS011;74995;49.824;10.994;2024-01-30T01:35:39;6.88;;;3.55;;
84766;SDS011;74995;49.824;10.994;2024-01-30T01:38:05;5.97;;;3.70;;
84766;SDS011;74995;49.824;10.994;2024-01-30T01:40:30;5.68;;;4.00;;
84766;SDS011;74995;49.824;10.994;2024-01-30T01:42:55;5.10;;;3.33;;
84766;SDS011;74995;49.824;10.994;2024-01-30T01:45:21;5.60;;;4.07;;
84766;SDS011;74995;49.824;10.994;2024-01-30T01:47:47;7.07;;;3.97;;
84766;SDS011;74995;49.824;10.994;2024-01-30T01:50:15;5.55;;;3.40;;
84766;SDS011;74995;49.824;10.994;2024-01-30T01:52:44;4.97;;;3.85;;
84766;SDS011;74995;49.824;10.994;2024-01-30T01:55:12;5.68;;;4.15;;
84766;SDS011;74995;49.824;10.994;2024-01-30T01:57:39;8.05;;;5.15;;
84766;SDS011;74995;49.824;10.994;2024-01-30T02:00:05;5.30;;;3.60;;
84766;SDS011;74995;49.824;10.994;2024-01-30T02:02:32;6.78;;;3.90;;
84766;SDS011;74995;49.824;10.994;2024-01-30T02:05:00;5.13;;;3.63;;
84766;SDS011;74995;49.824;10.994;2024-01-30T02:07:26;7.43;;;3.80;;
84766;SDS011;74995;49.824;10.994;2024-01-30T02:09:52;5.55;;;3.67;;
84766;SDS011;74995;49.824;10.994;2024-01-30T02:12:18;5.72;;;3.58;;
84766;SDS011;74995;49.824;10.994;2024-01-30T02:14:47;5.32;;;3.55;;
84766;SDS011;74995;49.824;10.994;2024-01-30T02:17:13;6.45;;;3.50;;
84766;SDS011;74995;49.824;10.994;2024-01-30T02:19:39;6.97;;;4.30;;
84766;SDS011;74995;49.824;10.994;2024-01-30T02:22:05;7.80;;;4.20;;
84766;SDS011;74995;49.824;10.994;2024-01-30T02:24:30;7.40;;;3.65;;
84766;SDS011;74995;49.824;10.994;2024-01-30T02:26:56;4.63;;;3.60;;
84766;SDS011;74995;49.824;10.994;2024-01-30T02:29:21;6.95;;;3.80;;
84766;SDS011;74995;49.824;10.994;2024-01-30T02:31:46;5.90;;;3.97;;
84766;SDS011;74995;49.824;10.994;2024-01-30T02:34:12;6.18;;;3.50;;
84766;SDS011;74995;49.824;10.994;2024-01-30T02:36:38;5.20;;;3.70;;
84766;SDS011;74995;49.824;10.994;2024-01-30T02:39:03;6.03;;;3.78;;
84766;SDS011;74995;49.824;10.994;2024-01-30T02:41:28;5.32;;;3.70;;
84766;SDS011;74995;49.824;10.994;2024-01-30T02:43:54;6.20;;;4.15;;
84766;SDS011;74995;49.824;10.994;2024-01-30T02:46:19;6.03;;;3.75;;
84766;SDS011;74995;49.824;10.994;2024-01-30T02:48:44;6.18;;;4.18;;
84766;SDS011;74995;49.824;10.994;2024-01-30T02:51:10;6.13;;;3.80;;
84766;SDS011;74995;49.824;10.994;2024-01-30T02:53:35;5.32;;;3.85;;
84766;SDS011;74995;49.824;10.994;2024-01-30T02:56:02;6.38;;;3.92;;
84766;SDS011;74995;49.824;10.994;2024-01-30T02:58:28;5.35;;;4.05;;
84766;SDS011;74995;49.824;10.994;2024-01-30T03:00:53;6.32;;;4.07;;
84766;SDS011;74995;49.824;10.994;2024-01-30T03:03:18;5.57;;;3.55;;
84766;SDS011;74995;49.824;10.994;2024-01-30T03:05:44;6.15;;;4.20;;
84766;SDS011;74995;49.824;10.994;2024-01-30T03:08:09;5.70;;;3.78;;
84766;SDS011;74995;49.824;10.994;2024-01-30T03:10:34;5.10;;;3.55;;
84766;SDS011;74995;49.824;10.994;2024-01-30T03:12:59;6.43;;;4.05;;
84766;SDS011;74995;49.824;10.994;2024-01-30T03:15:25;5.95;;;3.53;;
84766;SDS011;74995;49.824;10.994;2024-01-30T03:17:50;6.40;;;3.92;;
84766;SDS011;74995;49.824;10.994;2024-01-30T03:20:15;8.05;;;4.03;;
84766;SDS011;74995;49.824;10.994;2024-01-30T03:22:41;6.45;;;3.92;;
84766;SDS011;74995;49.824;10.994;2024-01-30T03:25:06;5.53;;;3.47;;
84766;SDS011;74995;49.824;10.994;2024-01-30T03:27:32;5.38;;;3.58;;
84766;SDS011;74995;49.824;10.994;2024-01-30T03:29:57;7.03;;;4.30;;
84766;SDS011;74995;49.824;10.994;2024-01-30T03:32:22;6.32;;;4.05;;
84766;SDS011;74995;49.824;10.994;2024-01-30T03:34:48;6.57;;;3.67;;
84766;SDS011;74995;49.824;10.994;2024-01-30T03:37:13;5.00;;;4.03;;
84766;SDS011;74995;49.824;10.994;2024-01-30T03:39:38;4.68;;;3.50;;
84766;SDS011;74995;49.824;10.994;2024-01-30T03:42:04;7.53;;;3.72;;
84766;SDS011;74995;49.824;10.994;2024-01-30T03:44:29;6.63;;;3.72;;
84766;SDS011;74995;49.824;10.994;2024-01-30T03:46:54;5.25;;;3.70;;
84766;SDS011;74995;49.824;10.994;2024-01-30T03:49:19;6.00;;;3.97;;
84766;SDS011;74995;49.824;10.994;2024-01-30T03:51:45;6.72;;;4.10;;
84766;SDS011;74995;49.824;10.994;2024-01-30T03:54:12;6.05;;;3.95;;
84766;SDS011;74995;49.824;10.994;2024-01-30T03:56:37;6.05;;;4.00;;
84766;SDS011;74995;49.824;10.994;2024-01-30T03:59:03;6.53;;;3.75;;
84766;SDS011;74995;49.824;10.994;2024-01-30T04:01:28;6.90;;;3.53;;
84766;SDS011;74995;49.824;10.994;2024-01-30T04:03:53;5.10;;;3.90;;
84766;SDS011;74995;49.824;10.994;2024-01-30T04:06:19;5.97;;;3.78;;
84766;SDS011;74995;49.824;10.994;2024-01-30T04:08:44;4.80;;;3.63;;
84766;SDS011;74995;49.824;10.994;2024-01-30T04:11:09;5.95;;;4.05;;
84766;SDS011;74995;49.824;10.994;2024-01-30T04:13:35;6.18;;;3.70;;
84766;SDS011;74995;49.824;10.994;2024-01-30T04:16:00;5.30;;;3.85;;
84766;SDS011;74995;49.824;10.994;2024-01-30T04:18:26;5.68;;;3.60;;
84766;SDS011;74995;49.824;10.994;2024-01-30T04:20:52;5.85;;;3.63;;
84766;SDS011;74995;49.824;10.994;2024-01-30T04:23:17;6.32;;;3.83;;
84766;SDS011;74995;49.824;10.994;2024-01-30T04:25:43;7.93;;;4.10;;
84766;SDS011;74995;49.824;10.994;2024-01-30T04:28:08;4.78;;;3.50;;
84766;SDS011;74995;49.824;10.994;2024-01-30T04:30:33;6.30;;;4.28;;
84766;SDS011;74995;49.824;10.994;2024-01-30T04:32:59;7.13;;;3.92;;
84766;SDS011;74995;49.824;10.994;2024-01-30T04:35:24;5.68;;;3.72;;
84766;SDS011;74995;49.824;10.994;2024-01-30T04:37:51;6.07;;;3.90;;
84766;SDS011;74995;49.824;10.994;2024-01-30T04:40:17;5.13;;;4.05;;
84766;SDS011;74995;49.824;10.994;2024-01-30T04:42:43;5.25;;;3.53;;
84766;SDS011;74995;49.824;10.994;2024-01-30T04:45:09;5.93;;;3.90;;
84766;SDS011;74995;49.824;10.994;2024-01-30T04:47:34;5.85;;;3.65;;
84766;SDS011;74995;49.824;10.994;2024-01-30T04:49:59;6.80;;;4.03;;
84766;SDS011;74995;49.824;10.994;2024-01-30T04:52:25;6.10;;;3.97;;
84766;SDS011;74995;49.824;10.994;2024-01-30T04:54:50;6.22;;;3.92;;
84766;SDS011;74995;49.824;10.994;2024-01-30T04:57:15;5.78;;;3.53;;
84766;SDS011;74995;49.824;10.994;2024-01-30T04:59:41;7.22;;;4.30;;
84766;SDS011;74995;49.824;10.994;2024-01-30T05:02:06;5.43;;;3.78;;
84766;SDS011;74995;49.824;10.994;2024-01-30T05:04:32;6.05;;;3.50;;
84766;SDS011;74995;49.824;10.994;2024-01-30T05:06:57;6.03;;;3.97;;
84766;SDS011;74995;49.824;10.994;2024-01-30T05:09:22;6.30;;;3.72;;
84766;SDS011;74995;49.824;10.994;2024-01-30T05:11:47;5.18;;;3.50;;
84766;SDS011;74995;49.824;10.994;2024-01-30T05:14:13;7.07;;;3.75;;
84766;SDS011;74995;49.824;10.994;2024-01-30T05:16:40;6.55;;;3.65;;
84766;SDS011;74995;49.824;10.994;2024-01-30T05:19:06;6.55;;;3.92;;
84766;SDS011;74995;49.824;10.994;2024-01-30T05:21:31;5.57;;;3.92;;
84766;SDS011;74995;49.824;10.994;2024-01-30T05:23:56;6.80;;;4.00;;
84766;SDS011;74995;49.824;10.994;2024-01-30T05:26:22;5.93;;;4.10;;
84766;SDS011;74995;49.824;10.994;2024-01-30T05:28:48;6.18;;;3.90;;
84766;SDS011;74995;49.824;10.994;2024-01-30T05:31:13;6.63;;;3.60;;
84766;SDS011;74995;49.824;10.994;2024-01-30T05:33:38;6.95;;;3.58;;
84766;SDS011;74995;49.824;10.994;2024-01-30T05:36:04;5.88;;;3.58;;
84766;SDS011;74995;49.824;10.994;2024-01-30T05:38:29;5.50;;;3.67;;
84766;SDS011;74995;49.824;10.994;2024-01-30T05:40:58;5.03;;;3.47;;
84766;SDS011;74995;49.824;10.994;2024-01-30T05:43:23;5.97;;;3.67;;
84766;SDS011;74995;49.824;10.994;2024-01-30T05:45:49;6.22;;;3.65;;
84766;SDS011;74995;49.824;10.994;2024-01-30T05:48:14;5.50;;;3.58;;
84766;SDS011;74995;49.824;10.994;2024-01-30T05:50:39;5.63;;;3.53;;
84766;SDS011;74995;49.824;10.994;2024-01-30T05:53:05;6.15;;;3.80;;
84766;SDS011;74995;49.824;10.994;2024-01-30T05:55:30;4.88;;;3.40;;
84766;SDS011;74995;49.824;10.994;2024-01-30T05:57:55;5.85;;;3.75;;
84766;SDS011;74995;49.824;10.994;2024-01-30T06:00:21;6.90;;;3.60;;
84766;SDS011;74995;49.824;10.994;2024-01-30T06:02:46;5.35;;;3.72;;
84766;SDS011;74995;49.824;10.994;2024-01-30T06:05:11;4.38;;;3.13;;
84766;SDS011;74995;49.824;10.994;2024-01-30T06:07:36;5.40;;;3.10;;
84766;SDS011;74995;49.824;10.994;2024-01-30T06:10:02;4.40;;;3.25;;
84766;SDS011;74995;49.824;10.994;2024-01-30T06:12:28;5.28;;;3.42;;
84766;SDS011;74995;49.824;10.994;2024-01-30T06:14:53;4.93;;;3.28;;
84766;SDS011;74995;49.824;10.994;2024-01-30T06:17:21;5.97;;;3.50;;
84766;SDS011;74995;49.824;10.994;2024-01-30T06:19:47;5.80;;;3.53;;
84766;SDS011;74995;49.824;10.994;2024-01-30T06:22:12;5.05;;;3.80;;
84766;SDS011;74995;49.824;10.994;2024-01-30T06:24:37;5.15;;;3.67;;
84766;SDS011;74995;49.824;10.994;2024-01-30T06:27:03;5.22;;;3.17;;
84766;SDS011;74995;49.824;10.994;2024-01-30T06:29:29;5.43;;;4.03;;
84766;SDS011;74995;49.824;10.994;2024-01-30T06:31:54;5.60;;;3.97;;
84766;SDS011;74995;49.824;10.994;2024-01-30T06:34:19;5.35;;;3.50;;
84766;SDS011;74995;49.824;10.994;2024-01-30T06:36:45;4.40;;;2.90;;
84766;SDS011;74995;49.824;10.994;2024-01-30T06:39:10;6.47;;;3.15;;
84766;SDS011;74995;49.824;10.994;2024-01-30T06:41:35;5.50;;;3.47;;
84766;SDS011;74995;49.824;10.994;2024-01-30T06:44:04;6.53;;;3.45;;
84766;SDS011;74995;49.824;10.994;2024-01-30T06:46:31;4.63;;;2.95;;
84766;SDS011;74995;49.824;10.994;2024-01-30T06:48:57;5.65;;;3.30;;
84766;SDS011;74995;49.824;10.994;2024-01-30T06:51:22;4.82;;;3.30;;
84766;SDS011;74995;49.824;10.994;2024-01-30T06:53:48;4.07;;;3.05;;
84766;SDS011;74995;49.824;10.994;2024-01-30T06:56:13;5.30;;;3.25;;
84766;SDS011;74995;49.824;10.994;2024-01-30T06:58:38;4.43;;;3.03;;
84766;SDS011;74995;49.824;10.994;2024-01-30T07:01:04;4.60;;;3.35;;
84766;SDS011;74995;49.824;10.994;2024-01-30T07:03:29;5.68;;;3.22;;
84766;SDS011;74995;49.824;10.994;2024-01-30T07:05:54;4.55;;;3.00;;
84766;SDS011;74995;49.824;10.994;2024-01-30T07:08:20;6.25;;;3.40;;
84766;SDS011;74995;49.824;10.994;2024-01-30T07:10:45;6.07;;;3.80;;
84766;SDS011;74995;49.824;10.994;2024-01-30T07:13:11;3.40;;;2.63;;
84766;SDS011;74995;49.824;10.994;2024-01-30T07:15:36;4.13;;;3.08;;
84766;SDS011;74995;49.824;10.994;2024-01-30T07:18:02;4.60;;;3.38;;
84766;SDS011;74995;49.824;10.994;2024-01-30T07:20:29;4.75;;;3.00;;
84766;SDS011;74995;49.824;10.994;2024-01-30T07:22:55;4.82;;;3.08;;
84766;SDS011;74995;49.824;10.994;2024-01-30T07:25:21;5.88;;;2.80;;
84766;SDS011;74995;49.824;10.994;2024-01-30T07:27:46;5.55;;;3.22;;
84766;SDS011;74995;49.824;10.994;2024-01-30T07:30:12;4.82;;;3.20;;
84766;SDS011;74995;49.824;10.994;2024-01-30T07:32:37;4.20;;;2.72;;
84766;SDS011;74995;49.824;10.994;2024-01-30T07:35:03;4.15;;;2.53;;
84766;SDS011;74995;49.824;10.994;2024-01-30T07:37:28;4.05;;;2.80;;
84766;SDS011;74995;49.824;10.994;2024-01-30T07:39:53;4.35;;;2.80;;
84766;SDS011;74995;49.824;10.994;2024-01-30T07:42:19;4.63;;;3.10;;
84766;SDS011;74995;49.824;10.994;2024-01-30T07:44:44;4.20;;;2.75;;
84766;SDS011;74995;49.824;10.994;2024-01-30T07:47:09;4.40;;;2.72;;
84766;SDS011;74995;49.824;10.994;2024-01-30T07:49:35;5.22;;;3.00;;
84766;SDS011;74995;49.824;10.994;2024-01-30T07:52:00;5.05;;;3.15;;
84766;SDS011;74995;49.824;10.994;2024-01-30T07:54:25;4.18;;;2.50;;
84766;SDS011;74995;49.824;10.994;2024-01-30T07:56:51;4.55;;;2.88;;
84766;SDS011;74995;49.824;10.994;2024-01-30T07:59:16;4.45;;;2.50;;
84766;SDS011;74995;49.824;10.994;2024-01-30T08:01:41;3.55;;;2.42;;
84766;SDS011;74995;49.824;10.994;2024-01-30T08:04:06;4.78;;;2.70;;
84766;SDS011;74995;49.824;10.994;2024-01-30T08:06:32;4.30;;;2.67;;
84766;SDS011;74995;49.824;10.994;2024-01-30T08:08:58;4.50;;;2.75;;
84766;SDS011;74995;49.824;10.994;2024-01-30T08:13:51;3.80;;;2.45;;
84766;SDS011;74995;49.824;10.994;2024-01-30T08:16:19;4.20;;;2.70;;
84766;SDS011;74995;49.824;10.994;2024-01-30T08:18:44;4.13;;;2.90;;
84766;SDS011;74995;49.824;10.994;2024-01-30T08:21:10;6.13;;;3.15;;
84766;SDS011;74995;49.824;10.994;2024-01-30T08:23:35;4.63;;;2.92;;
84766;SDS011;74995;49.824;10.994;2024-01-30T08:26:03;4.53;;;2.95;;
84766;SDS011;74995;49.824;10.994;2024-01-30T08:28:28;2.88;;;2.17;;
84766;SDS011;74995;49.824;10.994;2024-01-30T08:30:53;3.08;;;2.22;;
84766;SDS011;74995;49.824;10.994;2024-01-30T08:33:19;3.33;;;2.13;;
84766;SDS011;74995;49.824;10.994;2024-01-30T08:35:44;4.75;;;2.88;;
84766;SDS011;74995;49.824;10.994;2024-01-30T08:38:09;3.63;;;2.40;;
84766;SDS011;74995;49.824;10.994;2024-01-30T08:40:37;3.25;;;2.50;;
84766;SDS011;74995;49.824;10.994;2024-01-30T08:43:02;3.95;;;2.58;;
84766;SDS011;74995;49.824;10.994;2024-01-30T08:45:28;3.50;;;2.30;;
84766;SDS011;74995;49.824;10.994;2024-01-30T08:47:55;5.13;;;2.38;;
84766;SDS011;74995;49.824;10.994;2024-01-30T08:50:21;4.55;;;2.80;;
84766;SDS011;74995;49.824;10.994;2024-01-30T08:52:46;4.22;;;3.08;;
84766;SDS011;74995;49.824;10.994;2024-01-30T08:55:11;3.35;;;2.40;;
84766;SDS011;74995;49.824;10.994;2024-01-30T08:57:37;4.35;;;2.78;;
84766;SDS011;74995;49.824;10.994;2024-01-30T09:00:02;4.03;;;2.60;;
84766;SDS011;74995;49.824;10.994;2024-01-30T09:02:31;3.20;;;2.35;;
84766;SDS011;74995;49.824;10.994;2024-01-30T09:04:57;4.18;;;2.40;;
84766;SDS011;74995;49.824;10.994;2024-01-30T09:07:22;4.70;;;2.80;;
84766;SDS011;74995;49.824;10.994;2024-01-30T09:09:47;3.67;;;2.63;;
84766;SDS011;74995;49.824;10.994;2024-01-30T09:14:39;4.43;;;2.47;;
84766;SDS011;74995;49.824;10.994;2024-01-30T09:17:08;4.97;;;2.72;;
84766;SDS011;74995;49.824;10.994;2024-01-30T09:19:33;4.63;;;2.92;;
84766;SDS011;74995;49.824;10.994;2024-01-30T09:21:58;3.55;;;2.38;;
84766;SDS011;74995;49.824;10.994;2024-01-30T09:24:24;4.05;;;2.40;;
84766;SDS011;74995;49.824;10.994;2024-01-30T09:26:51;4.88;;;2.28;;
84766;SDS011;74995;49.824;10.994;2024-01-30T09:29:16;4.25;;;2.80;;
84766;SDS011;74995;49.824;10.994;2024-01-30T09:31:45;4.05;;;2.95;;
84766;SDS011;74995;49.824;10.994;2024-01-30T09:34:10;3.90;;;2.58;;
84766;SDS011;74995;49.824;10.994;2024-01-30T09:36:36;4.00;;;2.65;;
84766;SDS011;74995;49.824;10.994;2024-01-30T09:39:01;3.70;;;3.03;;
84766;SDS011;74995;49.824;10.994;2024-01-30T09:41:27;3.35;;;2.42;;
84766;SDS011;74995;49.824;10.994;2024-01-30T09:43:52;3.72;;;2.58;;
84766;SDS011;74995;49.824;10.994;2024-01-30T09:46:20;3.65;;;2.53;;
84766;SDS011;74995;49.824;10.994;2024-01-30T09:48:48;3.08;;;2.30;;
84766;SDS011;74995;49.824;10.994;2024-01-30T09:51:14;3.67;;;2.72;;
84766;SDS011;74995;49.824;10.994;2024-01-30T09:53:41;3.42;;;2.60;;
84766;SDS011;74995;49.824;10.994;2024-01-30T09:56:08;4.30;;;2.55;;
84766;SDS011;74995;49.824;10.994;2024-01-30T09:58:33;3.65;;;2.58;;
84766;SDS011;74995;49.824;10.994;2024-01-30T10:00:58;4.78;;;2.55;;
84766;SDS011;74995;49.824;10.994;2024-01-30T10:03:24;4.40;;;3.00;;
84766;SDS011;74995;49.824;10.994;2024-01-30T10:05:50;3.28;;;2.50;;
84766;SDS011;74995;49.824;10.994;2024-01-30T10:08:19;2.70;;;2.33;;
84766;SDS011;74995;49.824;10.994;2024-01-30T10:10:47;3.58;;;2.70;;
84766;SDS011;74995;49.824;10.994;2024-01-30T10:13:14;3.95;;;2.45;;
84766;SDS011;74995;49.824;10.994;2024-01-30T10:15:40;4.53;;;2.78;;
84766;SDS011;74995;49.824;10.994;2024-01-30T10:20:32;4.10;;;2.58;;
84766;SDS011;74995;49.824;10.994;2024-01-30T10:22:58;3.92;;;2.33;;
84766;SDS011;74995;49.824;10.994;2024-01-30T10:27:53;3.20;;;2.35;;
84766;SDS011;74995;49.824;10.994;2024-01-30T10:30:20;2.50;;;2.20;;
84766;SDS011;74995;49.824;10.994;2024-01-30T10:32:45;3.38;;;2.20;;
84766;SDS011;74995;49.824;10.994;2024-01-30T10:35:11;4.15;;;2.72;;
84766;SDS011;74995;49.824;10.994;2024-01-30T10:37:36;2.72;;;2.05;;
84766;SDS011;74995;49.824;10.994;2024-01-30T10:40:02;4.80;;;2.75;;
84766;SDS011;74995;49.824;10.994;2024-01-30T10:42:31;3.65;;;2.60;;
84766;SDS011;74995;49.824;10.994;2024-01-30T10:45:07;3.80;;;2.70;;
84766;SDS011;74995;49.824;10.994;2024-01-30T10:47:48;3.95;;;2.45;;
84766;SDS011;74995;49.824;10.994;2024-01-30T10:50:15;3.58;;;2.58;;
84766;SDS011;74995;49.824;10.994;2024-01-30T10:52:41;4.63;;;2.60;;
84766;SDS011;74995;49.824;10.994;2024-01-30T10:55:09;3.53;;;2.50;;
84766;SDS011;74995;49.824;10.994;2024-01-30T10:57:35;3.30;;;2.30;;
84766;SDS011;74995;49.824;10.994;2024-01-30T11:00:04;4.20;;;2.50;;
84766;SDS011;74995;49.824;10.994;2024-01-30T11:02:35;3.42;;;2.30;;
84766;SDS011;74995;49.824;10.994;2024-01-30T11:05:05;4.40;;;2.40;;
84766;SDS011;74995;49.824;10.994;2024-01-30T11:07:31;4.20;;;2.30;;
84766;SDS011;74995;49.824;10.994;2024-01-30T11:12:26;4.15;;;2.55;;
84766;SDS011;74995;49.824;10.994;2024-01-30T11:17:39;3.95;;;2.60;;
84766;SDS011;74995;49.824;10.994;2024-01-30T11:20:27;3.10;;;2.05;;
84766;SDS011;74995;49.824;10.994;2024-01-30T11:22:56;4.50;;;2.78;;
84766;SDS011;74995;49.824;10.994;2024-01-30T11:27:52;3.65;;;2.45;;
84766;SDS011;74995;49.824;10.994;2024-01-30T11:30:36;3.15;;;2.28;;
84766;SDS011;74995;49.824;10.994;2024-01-30T11:33:05;3.17;;;2.35;;
84766;SDS011;74995;49.824;10.994;2024-01-30T11:35:34;3.53;;;2.17;;
84766;SDS011;74995;49.824;10.994;2024-01-30T11:38:04;3.33;;;2.47;;
84766;SDS011;74995;49.824;10.994;2024-01-30T11:40:31;4.57;;;2.90;;
84766;SDS011;74995;49.824;10.994;2024-01-30T11:42:58;3.05;;;2.30;;
84766;SDS011;74995;49.824;10.994;2024-01-30T11:45:24;3.00;;;2.13;;
84766;SDS011;74995;49.824;10.994;2024-01-30T11:47:51;3.03;;;2.47;;
84766;SDS011;74995;49.824;10.994;2024-01-30T11:50:16;3.50;;;2.60;;
84766;SDS011;74995;49.824;10.994;2024-01-30T11:52:42;4.00;;;2.58;;
84766;SDS011;74995;49.824;10.994;2024-01-30T11:55:08;4.35;;;2.60;;
84766;SDS011;74995;49.824;10.994;2024-01-30T11:57:34;4.10;;;2.42;;
84766;SDS011;74995;49.824;10.994;2024-01-30T12:00:04;4.53;;;2.58;;
84766;SDS011;74995;49.824;10.994;2024-01-30T12:02:35;3.05;;;2.10;;
84766;SDS011;74995;49.824;10.994;2024-01-30T12:05:07;3.78;;;2.47;;
84766;SDS011;74995;49.824;10.994;2024-01-30T12:07:32;4.90;;;2.70;;
84766;SDS011;74995;49.824;10.994;2024-01-30T12:09:58;3.92;;;2.47;;
84766;SDS011;74995;49.824;10.994;2024-01-30T12:12:24;4.22;;;2.47;;
84766;SDS011;74995;49.824;10.994;2024-01-30T12:14:51;5.35;;;2.55;;
84766;SDS011;74995;49.824;10.994;2024-01-30T12:17:30;3.30;;;2.25;;
84766;SDS011;74995;49.824;10.994;2024-01-30T12:20:06;3.88;;;2.38;;
84766;SDS011;74995;49.824;10.994;2024-01-30T12:22:42;3.33;;;2.63;;
84766;SDS011;74995;49.824;10.994;2024-01-30T12:25:13;4.75;;;2.75;;
84766;SDS011;74995;49.824;10.994;2024-01-30T12:27:39;3.53;;;2.33;;
84766;SDS011;74995;49.824;10.994;2024-01-30T12:30:11;3.35;;;2.45;;
84766;SDS011;74995;49.824;10.994;2024-01-30T12:32:41;3.65;;;2.40;;
84766;SDS011;74995;49.824;10.994;2024-01-30T12:35:09;3.53;;;2.50;;
84766;SDS011;74995;49.824;10.994;2024-01-30T12:37:35;3.50;;;2.30;;
84766;SDS011;74995;49.824;10.994;2024-01-30T12:40:01;4.40;;;2.38;;
84766;SDS011;74995;49.824;10.994;2024-01-30T12:42:27;2.92;;;2.25;;
84766;SDS011;74995;49.824;10.994;2024-01-30T12:44:52;3.88;;;2.78;;
84766;SDS011;74995;49.824;10.994;2024-01-30T12:47:18;5.03;;;3.40;;
84766;SDS011;74995;49.824;10.994;2024-01-30T12:49:46;3.65;;;2.22;;
84766;SDS011;74995;49.824;10.994;2024-01-30T12:52:11;3.50;;;2.40;;
84766;SDS011;74995;49.824;10.994;2024-01-30T12:54:38;4.30;;;2.88;;
84766;SDS011;74995;49.824;10.994;2024-01-30T12:57:03;4.18;;;2.58;;
84766;SDS011;74995;49.824;10.994;2024-01-30T12:59:29;4.03;;;2.35;;
84766;SDS011;74995;49.824;10.994;2024-01-30T13:01:55;4.95;;;2.90;;
84766;SDS011;74995;49.824;10.994;2024-01-30T13:04:20;2.50;;;2.20;;
84766;SDS011;74995;49.824;10.994;2024-01-30T13:06:45;3.22;;;2.58;;
84766;SDS011;74995;49.824;10.994;2024-01-30T13:09:11;4.15;;;2.38;;
84766;SDS011;74995;49.824;10.994;2024-01-30T13:14:02;4.38;;;2.45;;
84766;SDS011;74995;49.824;10.994;2024-01-30T13:16:28;4.72;;;2.55;;
84766;SDS011;74995;49.824;10.994;2024-01-30T13:18:53;4.43;;;2.38;;
84766;SDS011;74995;49.824;10.994;2024-01-30T13:21:20;2.97;;;2.53;;
84766;SDS011;74995;49.824;10.994;2024-01-30T13:23:46;3.47;;;2.42;;
84766;SDS011;74995;49.824;10.994;2024-01-30T13:26:11;3.60;;;2.58;;
84766;SDS011;74995;49.824;10.994;2024-01-30T13:28:37;3.80;;;2.40;;
84766;SDS011;74995;49.824;10.994;2024-01-30T13:31:02;3.15;;;2.40;;
84766;SDS011;74995;49.824;10.994;2024-01-30T13:33:27;4.10;;;2.40;;
84766;SDS011;74995;49.824;10.994;2024-01-30T13:35:53;10.73;;;4.32;;
84766;SDS011;74995;49.824;10.994;2024-01-30T13:38:18;10.55;;;6.18;;
84766;SDS011;74995;49.824;10.994;2024-01-30T13:43:03;12.90;;;7.47;;
84766;SDS011;74995;49.824;10.994;2024-01-30T13:45:28;18.33;;;7.65;;
84766;SDS011;74995;49.824;10.994;2024-01-30T13:47:54;12.95;;;7.55;;
84766;SDS011;74995;49.824;10.994;2024-01-30T13:50:19;20.70;;;7.38;;
84766;SDS011;74995;49.824;10.994;2024-01-30T13:52:45;14.98;;;6.85;;
84766;SDS011;74995;49.824;10.994;2024-01-30T13:55:10;23.98;;;8.00;;
84766;SDS011;74995;49.824;10.994;2024-01-30T13:57:36;11.57;;;7.43;;
84766;SDS011;74995;49.824;10.994;2024-01-30T14:02:31;17.77;;;7.53;;
84766;SDS011;74995;49.824;10.994;2024-01-30T14:04:56;15.55;;;7.25;;
84766;SDS011;74995;49.824;10.994;2024-01-30T14:07:22;11.63;;;6.85;;
84766;SDS011;74995;49.824;10.994;2024-01-30T14:09:47;11.07;;;6.28;;
84766;SDS011;74995;49.824;10.994;2024-01-30T14:12:13;10.98;;;7.38;;
84766;SDS011;74995;49.824;10.994;2024-01-30T14:14:38;10.80;;;6.50;;
84766;SDS011;74995;49.824;10.994;2024-01-30T14:17:04;13.20;;;6.40;;
84766;SDS011;74995;49.824;10.994;2024-01-30T14:19:31;12.65;;;7.10;;
84766;SDS011;74995;49.824;10.994;2024-01-30T14:21:57;12.32;;;6.68;;
84766;SDS011;74995;49.824;10.994;2024-01-30T14:24:22;12.77;;;6.70;;
84766;SDS011;74995;49.824;10.994;2024-01-30T14:26:48;10.57;;;5.75;;
84766;SDS011;74995;49.824;10.994;2024-01-30T14:29:13;12.45;;;7.10;;
84766;SDS011;74995;49.824;10.994;2024-01-30T14:31:38;10.93;;;6.43;;
84766;SDS011;74995;49.824;10.994;2024-01-30T14:34:04;10.50;;;5.97;;
84766;SDS011;74995;49.824;10.994;2024-01-30T14:36:29;9.65;;;5.70;;
84766;SDS011;74995;49.824;10.994;2024-01-30T14:38:55;8.57;;;5.75;;
84766;SDS011;74995;49.824;10.994;2024-01-30T14:41:20;11.35;;;6.07;;
84766;SDS011;74995;49.824;10.994;2024-01-30T14:43:45;10.90;;;5.72;;
84766;SDS011;74995;49.824;10.994;2024-01-30T14:46:11;9.23;;;5.82;;
84766;SDS011;74995;49.824;10.994;2024-01-30T14:48:36;8.98;;;6.20;;
84766;SDS011;74995;49.824;10.994;2024-01-30T14:51:02;8.02;;;5.22;;
84766;SDS011;74995;49.824;10.994;2024-01-30T14:53:27;10.15;;;5.78;;
84766;SDS011;74995;49.824;10.994;2024-01-30T14:55:53;9.80;;;5.65;;